createdAt,value
2018-05-18T09:32:36.510Z,5.82
2018-05-18T09:35:05.355Z,6.00
2018-05-18T09:37:34.176Z,5.10
2018-05-18T09:40:03.004Z,5.27
2018-05-18T09:42:31.861Z,6.80
2018-05-18T09:45:00.758Z,5.47
2018-05-18T09:47:29.591Z,5.83
2018-05-18T09:49:58.433Z,7.17
2018-05-18T09:52:27.251Z,6.53
2018-05-18T09:54:56.257Z,5.80
2018-05-18T09:57:24.935Z,6.40
2018-05-18T09:59:53.793Z,6.63
2018-05-18T10:02:22.654Z,5.70
2018-05-18T10:04:51.506Z,5.70
2018-05-18T10:07:20.328Z,7.03
2018-05-18T10:09:49.200Z,7.60
2018-05-18T10:12:18.058Z,5.77
2018-05-18T10:14:46.907Z,6.40
2018-05-18T10:17:16.125Z,6.00
2018-05-18T10:19:44.954Z,5.70
2018-05-18T10:22:13.799Z,6.80
2018-05-18T10:24:42.654Z,6.43
2018-05-18T10:27:11.488Z,5.87
2018-05-18T10:29:40.323Z,5.53
2018-05-18T10:32:09.183Z,5.30
2018-05-18T10:34:38.003Z,5.30
2018-05-18T10:37:06.855Z,4.60
2018-05-18T10:39:35.967Z,5.00
2018-05-18T10:42:04.791Z,4.67
2018-05-18T10:44:33.607Z,5.60
2018-05-18T10:47:02.476Z,5.23
2018-05-18T10:49:31.465Z,4.50
2018-05-18T10:52:00.190Z,3.93
2018-05-18T10:54:29.043Z,4.63
2018-05-18T10:56:57.961Z,4.50
2018-05-18T10:59:26.837Z,4.60
2018-05-18T11:01:55.659Z,5.40
2018-05-18T11:04:24.595Z,5.07
2018-05-18T11:06:53.477Z,4.97
2018-05-18T11:09:22.284Z,4.60
2018-05-18T11:11:51.210Z,4.90
2018-05-18T11:14:20.124Z,4.30
2018-05-18T11:16:48.948Z,4.57
2018-05-18T11:19:17.770Z,4.03
2018-05-18T11:21:46.595Z,4.80
2018-05-18T11:24:15.420Z,4.47
2018-05-18T11:26:44.645Z,5.30
2018-05-18T11:29:13.467Z,4.27
2018-05-18T11:31:42.361Z,4.30
2018-05-18T11:34:11.187Z,4.83
2018-05-18T11:36:40.007Z,4.90
2018-05-18T11:39:08.864Z,4.03
2018-05-18T11:41:37.723Z,4.03
2018-05-18T11:44:06.571Z,4.07
2018-05-18T11:46:35.448Z,3.60
2018-05-18T11:49:04.267Z,3.30
2018-05-18T11:51:33.242Z,4.40
2018-05-18T11:54:02.083Z,3.50
2018-05-18T11:56:30.927Z,4.70
2018-05-18T11:58:59.755Z,4.07
2018-05-18T12:01:28.599Z,3.87
2018-05-18T12:03:57.465Z,3.93
2018-05-18T12:06:26.329Z,3.23
2018-05-18T12:08:55.176Z,4.10
2018-05-18T12:11:24.023Z,2.87
2018-05-18T12:13:52.858Z,3.63
2018-05-18T12:16:21.743Z,3.43
2018-05-18T12:18:50.558Z,5.10
2018-05-18T12:21:19.389Z,5.07
2018-05-18T12:23:48.243Z,7.43
2018-05-18T12:26:17.165Z,4.83
2018-05-18T12:28:45.982Z,5.73
2018-05-18T12:31:14.833Z,4.70
2018-05-18T12:33:43.661Z,5.17
2018-05-18T12:36:12.551Z,5.10
2018-05-18T12:38:41.404Z,4.73
2018-05-18T12:41:10.233Z,5.23
2018-05-18T12:43:39.091Z,3.80
2018-05-18T12:46:07.978Z,4.33
2018-05-18T12:48:36.840Z,4.57
2018-05-18T12:51:05.688Z,4.87
2018-05-18T12:53:34.557Z,4.73
2018-05-18T12:56:03.446Z,4.70
2018-05-18T12:58:32.274Z,6.00
2018-05-18T13:01:01.111Z,5.60
2018-05-18T13:03:30.018Z,5.53
2018-05-18T13:05:58.859Z,4.67
2018-05-18T13:08:27.687Z,4.70
2018-05-18T13:10:56.532Z,4.10
2018-05-18T13:13:25.358Z,4.13
2018-05-18T13:15:54.202Z,4.37
2018-05-18T13:18:23.031Z,6.00
2018-05-18T13:20:51.974Z,4.90
2018-05-18T13:23:20.799Z,4.73
2018-05-18T13:25:49.743Z,4.37
2018-05-18T13:28:18.567Z,5.00
2018-05-18T13:30:47.407Z,4.97
2018-05-18T13:33:16.277Z,4.63
2018-05-18T13:35:45.103Z,4.77
2018-05-18T13:38:13.937Z,308.37
2018-05-18T13:40:42.934Z,155.67
2018-05-18T13:43:11.791Z,46.60
2018-05-18T13:45:40.624Z,64.97
2018-05-18T13:48:09.457Z,61.37
2018-05-18T13:50:38.298Z,32.20
2018-05-18T13:53:07.140Z,34.50
2018-05-18T13:55:35.967Z,23.30
2018-05-18T13:58:04.811Z,23.50
2018-05-18T14:00:33.644Z,26.23
2018-05-18T14:03:02.473Z,22.20
2018-05-18T14:05:31.337Z,16.30
2018-05-18T14:08:00.201Z,13.13
2018-05-18T14:10:29.055Z,11.37
2018-05-18T14:12:57.924Z,10.27
2018-05-18T14:15:26.760Z,12.70
2018-05-18T14:17:55.640Z,8.27
2018-05-18T14:20:24.499Z,10.83
2018-05-18T14:22:53.342Z,7.97
2018-05-18T14:25:22.189Z,8.10
2018-05-18T14:27:51.900Z,10.20
2018-05-18T14:30:20.755Z,6.30
2018-05-18T14:32:49.576Z,7.70
2018-05-18T14:35:18.430Z,8.47
2018-05-18T14:37:47.386Z,9.50
2018-05-18T14:40:16.153Z,8.93
2018-05-18T14:42:45.092Z,8.57
2018-05-18T14:45:14.007Z,108.10
2018-05-18T14:47:42.862Z,262.40
2018-05-18T14:50:11.785Z,122.47
2018-05-18T14:52:40.635Z,70.37
2018-05-18T14:55:09.502Z,69.60
2018-05-18T14:57:38.331Z,38.33
2018-05-18T15:00:07.182Z,42.73
2018-05-18T15:02:36.030Z,29.53
2018-05-18T15:05:04.942Z,28.27
2018-05-18T15:07:33.791Z,29.63
2018-05-18T15:10:02.635Z,15.93
2018-05-18T15:12:31.459Z,9.90
2018-05-18T15:15:00.407Z,18.80
2018-05-18T15:17:29.234Z,10.83
2018-05-18T15:19:58.066Z,69.60
2018-05-18T15:22:26.928Z,519.17
2018-05-18T15:24:55.857Z,341.97
2018-05-18T15:27:24.667Z,162.40
2018-05-18T15:29:53.526Z,145.60
2018-05-18T15:32:22.359Z,70.17
2018-05-18T15:34:51.212Z,36.47
2018-05-18T15:37:20.096Z,35.80
2018-05-18T15:39:48.947Z,38.93
2018-05-18T15:42:17.800Z,17.27
2018-05-18T15:44:46.631Z,31.60
2018-05-18T15:47:15.501Z,23.10
2018-05-18T15:49:44.343Z,24.33
2018-05-18T15:52:13.174Z,12.47
2018-05-18T15:54:42.012Z,17.17
2018-05-18T15:57:10.854Z,14.43
2018-05-18T15:59:39.700Z,15.07
2018-05-18T16:02:08.547Z,14.73
2018-05-18T16:04:37.403Z,10.33
2018-05-18T16:07:06.228Z,12.40
2018-05-18T16:09:35.150Z,14.70
2018-05-18T16:12:03.984Z,11.83
2018-05-18T16:14:32.933Z,13.80
2018-05-18T16:17:01.763Z,13.27
2018-05-18T16:19:30.596Z,740.33
2018-05-18T16:21:59.450Z,763.37
2018-05-18T16:24:28.294Z,526.60
2018-05-18T16:26:57.175Z,395.33
2018-05-18T16:29:26.028Z,347.33
2018-05-18T16:31:54.931Z,294.90
2018-05-18T16:34:23.776Z,598.00
2018-05-18T16:36:52.613Z,565.27
2018-05-18T16:39:21.459Z,470.10
2018-05-18T16:41:50.319Z,444.37
2018-05-18T16:44:19.175Z,392.17
2018-05-18T16:46:48.120Z,244.30
2018-05-18T16:49:16.966Z,280.83
2018-05-18T16:51:45.806Z,199.13
2018-05-18T16:54:14.663Z,198.27
2018-05-18T16:56:43.530Z,217.03
2018-05-18T16:59:12.471Z,100.83
2018-05-18T17:01:41.327Z,276.73
2018-05-18T17:04:10.171Z,68.87
2018-05-18T17:06:39.015Z,397.93
2018-05-18T17:09:07.928Z,272.97
2018-05-18T17:11:36.751Z,205.67
2018-05-18T17:14:05.591Z,273.10
2018-05-18T17:16:34.419Z,240.30
2018-05-18T17:19:03.362Z,209.83
2018-05-18T17:21:32.248Z,197.00
2018-05-18T17:24:01.111Z,81.37
2018-05-18T17:26:30.034Z,168.47
2018-05-18T17:28:58.866Z,288.73
2018-05-18T17:31:27.732Z,292.93
2018-05-18T17:33:56.589Z,250.87
2018-05-18T17:36:25.442Z,207.13
2018-05-18T17:38:54.355Z,196.33
2018-05-18T17:41:23.192Z,116.50
2018-05-18T17:43:52.047Z,111.43
2018-05-18T17:46:20.911Z,221.63
2018-05-18T17:48:49.776Z,458.93
2018-05-18T17:51:18.605Z,413.40
2018-05-18T17:53:47.451Z,304.70
2018-05-18T17:56:16.283Z,55.83
2018-05-18T17:58:45.212Z,180.60
2018-05-18T18:01:14.123Z,185.33
2018-05-18T18:03:42.966Z,297.30
2018-05-18T18:06:11.827Z,241.17
2018-05-18T18:08:40.689Z,217.47
2018-05-18T18:11:09.539Z,68.47
2018-05-18T18:13:38.411Z,189.90
2018-05-18T18:16:07.263Z,143.23
2018-05-18T18:18:36.127Z,288.47
2018-05-18T18:21:05.035Z,529.13
2018-05-18T18:23:33.872Z,71.10
2018-05-18T18:26:02.708Z,295.27
2018-05-18T18:28:31.651Z,288.80
2018-05-18T18:31:00.441Z,306.00
2018-05-18T18:33:29.279Z,329.97
2018-05-18T18:35:58.134Z,231.63
2018-05-18T18:38:26.987Z,196.53
2018-05-18T18:40:55.862Z,261.13
2018-05-18T18:43:24.842Z,245.17
2018-05-18T18:45:53.695Z,741.80
2018-05-18T18:48:22.928Z,660.60
2018-05-18T18:50:52.126Z,510.10
2018-05-18T18:53:21.222Z,481.97
2018-05-18T18:55:50.099Z,845.83
2018-05-18T18:58:18.926Z,761.13
2018-05-18T19:00:47.827Z,542.37
2018-05-18T19:03:16.665Z,610.47
2018-05-18T19:05:45.548Z,509.63
2018-05-18T19:08:14.425Z,423.47
2018-05-18T19:10:43.350Z,359.17
2018-05-18T19:13:12.255Z,510.10
2018-05-18T19:15:41.161Z,467.00
2018-05-18T19:18:10.010Z,830.30
2018-05-18T19:20:38.853Z,465.33
2018-05-18T19:23:07.701Z,548.03
2018-05-18T19:25:36.543Z,504.20
2018-05-18T19:28:05.400Z,293.17
2018-05-18T19:30:34.264Z,332.73
2018-05-18T19:33:03.131Z,295.43
2018-05-18T19:35:31.959Z,250.50
2018-05-18T19:38:00.871Z,191.37
2018-05-18T19:40:29.724Z,152.10
2018-05-18T19:42:58.931Z,142.60
2018-05-18T19:45:27.827Z,256.83
2018-05-18T19:47:56.965Z,389.57
2018-05-18T19:50:25.826Z,265.47
2018-05-18T19:52:54.682Z,522.57
2018-05-18T19:55:23.524Z,665.90
2018-05-18T19:57:52.374Z,516.87
2018-05-18T20:00:21.235Z,366.37
2018-05-18T20:02:50.074Z,95.43
2018-05-18T20:05:18.955Z,17.13
2018-05-18T20:07:47.787Z,138.00
2018-05-18T20:10:17.587Z,12.50
2018-05-18T20:12:46.431Z,45.40
2018-05-18T20:15:15.567Z,128.40
2018-05-18T20:17:44.519Z,616.37
2018-05-18T20:20:13.358Z,455.17
2018-05-18T20:22:42.219Z,292.63
2018-05-18T20:25:11.151Z,696.60
2018-05-18T20:27:39.930Z,781.70
2018-05-18T20:30:08.767Z,662.00
2018-05-18T20:32:37.618Z,21.67
2018-05-18T20:35:06.483Z,374.27
2018-05-18T20:37:35.319Z,203.07
2018-05-18T20:40:04.163Z,49.70
2018-05-18T20:42:33.115Z,66.17
2018-05-18T20:45:01.961Z,22.20
2018-05-18T20:47:30.812Z,100.00
2018-05-18T20:49:59.662Z,294.67
2018-05-18T20:52:28.580Z,278.00
2018-05-18T20:54:57.434Z,222.87
2018-05-18T20:57:26.310Z,187.60
2018-05-18T20:59:55.143Z,162.60
2018-05-18T21:02:24.017Z,114.53
2018-05-18T21:04:52.935Z,100.87
2018-05-18T21:07:21.763Z,118.20
2018-05-18T21:09:50.619Z,82.27
2018-05-18T21:12:19.458Z,8.60
2018-05-18T21:14:48.308Z,22.83
2018-05-18T21:17:17.178Z,60.57
2018-05-18T21:19:46.005Z,8.10
2018-05-18T21:22:14.830Z,10.07
2018-05-18T21:24:43.686Z,17.83
2018-05-18T21:27:12.521Z,10.97
2018-05-18T21:29:41.351Z,8.57
2018-05-18T21:32:10.224Z,22.43
2018-05-18T21:34:39.770Z,12.37
2018-05-18T21:37:08.603Z,8.20
2018-05-18T21:39:37.436Z,31.10
2018-05-18T21:42:06.263Z,8.40
2018-05-18T21:44:35.111Z,9.27
2018-05-18T21:47:03.939Z,17.40
2018-05-18T21:49:33.155Z,8.57
2018-05-18T21:52:01.991Z,633.60
2018-05-18T21:54:30.852Z,376.00
2018-05-18T21:56:59.678Z,42.57
2018-05-18T21:59:28.530Z,19.27
2018-05-18T22:01:57.384Z,51.70
2018-05-18T22:04:26.210Z,27.67
2018-05-18T22:06:55.039Z,8.30
2018-05-18T22:09:23.883Z,18.10
2018-05-18T22:11:52.752Z,13.67
2018-05-18T22:14:21.649Z,42.43
2018-05-18T22:16:50.474Z,144.53
2018-05-18T22:19:19.344Z,25.30
2018-05-18T22:21:48.197Z,99.93
2018-05-18T22:24:17.040Z,9.03
2018-05-18T22:26:45.884Z,7.90
2018-05-18T22:29:14.712Z,41.07
2018-05-18T22:31:43.568Z,8.40
2018-05-18T22:34:12.430Z,26.70
2018-05-18T22:36:41.250Z,7.00
2018-05-18T22:39:10.095Z,7.97
2018-05-18T22:41:38.967Z,10.53
2018-05-18T22:44:07.794Z,16.10
2018-05-18T22:46:36.626Z,10.17
2018-05-18T22:49:05.454Z,9.20
2018-05-18T22:51:34.303Z,26.13
2018-05-18T22:54:03.177Z,21.23
2018-05-18T22:56:31.999Z,9.47
2018-05-18T22:59:00.832Z,8.67
2018-05-18T23:01:29.674Z,8.13
2018-05-18T23:03:58.511Z,14.30
2018-05-18T23:06:27.343Z,16.70
2018-05-18T23:08:56.187Z,17.53
2018-05-18T23:11:25.019Z,43.93
2018-05-18T23:13:53.867Z,12.17
2018-05-18T23:16:22.695Z,14.30
2018-05-18T23:18:51.523Z,21.90
2018-05-18T23:21:20.429Z,21.53
2018-05-18T23:23:49.281Z,13.23
2018-05-18T23:26:18.138Z,12.40
2018-05-18T23:28:46.962Z,10.50
2018-05-18T23:31:15.794Z,67.60
2018-05-18T23:33:44.627Z,47.47
2018-05-18T23:36:13.503Z,8.80
2018-05-18T23:38:42.329Z,7.80
2018-05-18T23:41:11.154Z,11.67
2018-05-18T23:43:39.991Z,15.90
2018-05-18T23:46:08.854Z,9.70
2018-05-18T23:48:37.679Z,11.40
2018-05-18T23:51:06.523Z,12.17
2018-05-18T23:53:35.367Z,11.80
2018-05-18T23:56:04.624Z,130.80
2018-05-18T23:58:33.453Z,32.23
